createdAt,value
2022-10-22T00:00:41.184Z,18.72
2022-10-22T00:03:08.115Z,18.71
2022-10-22T00:05:35.758Z,18.76
2022-10-22T00:08:02.853Z,18.73
2022-10-22T00:10:29.831Z,18.71
2022-10-22T00:12:57.035Z,18.72
2022-10-22T00:15:24.502Z,18.70
2022-10-22T00:17:51.908Z,18.70
2022-10-22T00:20:18.851Z,18.72
2022-10-22T00:22:45.837Z,18.74
2022-10-22T00:25:12.751Z,18.70
2022-10-22T00:27:39.920Z,18.73
2022-10-22T00:30:09.145Z,18.75
2022-10-22T00:32:36.186Z,18.73
2022-10-22T00:35:03.908Z,18.73
2022-10-22T00:37:31.437Z,18.74
2022-10-22T00:39:58.357Z,18.75
2022-10-22T00:42:27.369Z,18.74
2022-10-22T00:45:04.576Z,18.76
2022-10-22T00:47:39.299Z,18.76
2022-10-22T00:50:13.509Z,18.76
2022-10-22T00:52:40.965Z,18.75
2022-10-22T00:55:09.116Z,18.78
2022-10-22T00:57:36.814Z,18.77
2022-10-22T01:00:06.483Z,18.75
2022-10-22T01:02:34.282Z,18.76
2022-10-22T01:05:01.240Z,18.76
2022-10-22T01:07:28.568Z,18.77
2022-10-22T01:10:22.059Z,18.76
2022-10-22T01:13:01.029Z,18.77
2022-10-22T01:15:56.857Z,18.78
2022-10-22T01:19:08.173Z,18.77
2022-10-22T01:21:46.831Z,18.78
2022-10-22T01:24:36.351Z,18.75
2022-10-22T01:27:26.395Z,18.77
2022-10-22T01:30:07.361Z,18.78
2022-10-22T01:32:45.148Z,18.80
2022-10-22T01:35:17.791Z,18.77
2022-10-22T01:37:53.491Z,18.77
2022-10-22T01:40:23.398Z,18.78
2022-10-22T01:43:02.886Z,18.78
2022-10-22T01:45:38.766Z,18.77
2022-10-22T01:48:24.452Z,18.79
2022-10-22T01:51:31.036Z,18.79
2022-10-22T01:54:34.287Z,18.77
2022-10-22T01:57:31.674Z,18.74
2022-10-22T02:00:08.932Z,18.77
2022-10-22T02:03:22.997Z,18.74
2022-10-22T02:06:01.627Z,18.74
2022-10-22T02:08:33.001Z,18.74
2022-10-22T02:11:01.336Z,18.71
2022-10-22T02:13:36.803Z,18.73
2022-10-22T02:16:08.608Z,18.74
2022-10-22T02:18:40.680Z,18.74
2022-10-22T02:23:40.604Z,18.73
2022-10-22T02:26:20.662Z,18.75
2022-10-22T02:29:07.395Z,18.76
2022-10-22T02:31:39.410Z,18.73
2022-10-22T02:34:11.752Z,18.75
2022-10-22T02:36:40.804Z,18.74
2022-10-22T02:39:09.464Z,18.72
2022-10-22T02:41:38.137Z,18.72
2022-10-22T02:44:10.389Z,18.73
2022-10-22T02:46:39.568Z,18.74
2022-10-22T02:49:06.917Z,18.70
2022-10-22T02:51:34.519Z,18.73
2022-10-22T02:54:01.950Z,18.74
2022-10-22T02:56:28.970Z,18.74
2022-10-22T02:58:56.161Z,18.73
2022-10-22T03:01:23.580Z,18.74
2022-10-22T03:03:50.691Z,18.75
2022-10-22T03:06:18.134Z,18.76
2022-10-22T03:08:45.127Z,18.73
2022-10-22T03:11:12.029Z,18.74
2022-10-22T03:13:38.899Z,18.76
2022-10-22T03:16:06.370Z,18.74
2022-10-22T03:18:33.379Z,18.76
2022-10-22T03:21:28.760Z,18.78
2022-10-22T03:23:56.005Z,18.77
2022-10-22T03:26:23.966Z,18.70
2022-10-22T03:28:51.665Z,18.75
2022-10-22T03:31:19.039Z,18.74
2022-10-22T03:33:46.153Z,18.76
2022-10-22T03:36:13.219Z,18.77
2022-10-22T03:38:41.126Z,18.79
2022-10-22T03:41:08.342Z,18.79
2022-10-22T03:43:36.831Z,18.82
2022-10-22T03:46:05.439Z,18.80
2022-10-22T03:48:32.631Z,18.80
2022-10-22T03:50:59.574Z,18.81
2022-10-22T03:53:26.481Z,18.81
2022-10-22T03:55:53.334Z,18.81
2022-10-22T03:58:20.169Z,18.81
2022-10-22T04:00:47.292Z,18.80
2022-10-22T04:03:14.405Z,18.79
2022-10-22T04:05:41.605Z,18.80
2022-10-22T04:08:08.696Z,18.80
2022-10-22T04:10:35.897Z,18.82
2022-10-22T04:13:02.810Z,18.80
2022-10-22T04:15:29.788Z,18.82
2022-10-22T04:17:56.765Z,18.80
2022-10-22T04:20:23.671Z,18.79
2022-10-22T04:22:50.591Z,18.79
2022-10-22T04:25:17.702Z,18.79
2022-10-22T04:27:44.567Z,18.79
2022-10-22T04:30:12.347Z,18.77
2022-10-22T04:32:39.211Z,18.78
2022-10-22T04:35:06.963Z,18.78
2022-10-22T04:37:34.153Z,18.78
2022-10-22T04:40:01.205Z,18.78
2022-10-22T04:42:28.189Z,18.79
2022-10-22T04:44:55.093Z,18.79
2022-10-22T04:47:22.070Z,18.78
2022-10-22T04:49:48.938Z,18.78
2022-10-22T04:52:15.905Z,18.80
2022-10-22T04:54:42.896Z,18.78
2022-10-22T04:57:09.820Z,18.79
2022-10-22T04:59:37.211Z,18.78
2022-10-22T05:02:04.461Z,18.77
2022-10-22T05:04:32.016Z,18.76
2022-10-22T05:06:58.948Z,18.76
2022-10-22T05:09:26.015Z,18.74
2022-10-22T05:11:53.571Z,18.76
2022-10-22T05:14:24.239Z,18.74
2022-10-22T05:16:52.529Z,18.72
2022-10-22T05:19:29.867Z,18.71
2022-10-22T05:22:00.366Z,18.69
2022-10-22T05:24:29.283Z,18.68
2022-10-22T05:26:58.509Z,18.68
2022-10-22T05:29:26.586Z,18.68
2022-10-22T05:31:54.244Z,18.68
2022-10-22T05:34:21.550Z,18.66
2022-10-22T05:36:48.601Z,18.66
2022-10-22T05:39:16.061Z,18.65
2022-10-22T05:41:43.256Z,18.63
2022-10-22T05:44:12.970Z,18.61
2022-10-22T05:46:40.677Z,18.58
2022-10-22T05:49:08.137Z,18.57
2022-10-22T05:51:37.268Z,18.57
2022-10-22T05:54:07.740Z,18.53
2022-10-22T05:56:35.563Z,18.52
2022-10-22T06:01:35.472Z,18.52
2022-10-22T06:04:07.626Z,18.52
2022-10-22T06:06:53.625Z,18.52
2022-10-22T06:09:26.486Z,18.53
2022-10-22T06:11:54.103Z,18.45
2022-10-22T06:14:21.914Z,18.47
2022-10-22T06:16:49.595Z,18.49
2022-10-22T06:19:20.393Z,18.51
2022-10-22T06:21:48.446Z,18.53
2022-10-22T06:24:16.173Z,18.54
2022-10-22T06:26:43.881Z,18.57
2022-10-22T06:29:11.543Z,18.59
2022-10-22T06:31:38.568Z,18.63
2022-10-22T06:34:12.183Z,18.65
2022-10-22T06:39:16.188Z,18.67
2022-10-22T06:41:43.667Z,18.69
2022-10-22T06:44:16.340Z,18.71
2022-10-22T06:46:44.070Z,18.73
2022-10-22T06:49:15.686Z,18.75
2022-10-22T06:51:42.825Z,18.77
2022-10-22T06:54:10.651Z,18.77
2022-10-22T06:56:38.082Z,18.77
2022-10-22T06:59:05.394Z,18.80
2022-10-22T07:01:36.129Z,18.82
2022-10-22T07:04:05.875Z,18.83
2022-10-22T07:06:33.058Z,18.84
2022-10-22T07:09:04.206Z,18.86
2022-10-22T07:11:40.612Z,18.89
2022-10-22T07:14:07.830Z,18.88
2022-10-22T07:16:34.769Z,18.90
2022-10-22T07:19:03.820Z,18.93
2022-10-22T07:21:32.145Z,18.95
2022-10-22T07:24:00.361Z,18.99
2022-10-22T07:26:30.935Z,19.03
2022-10-22T07:29:00.679Z,19.05
2022-10-22T07:31:28.453Z,19.09
2022-10-22T07:33:55.604Z,19.12
2022-10-22T07:36:22.682Z,19.16
2022-10-22T07:38:56.522Z,19.18
2022-10-22T07:41:23.934Z,19.20
2022-10-22T07:43:51.615Z,19.23
2022-10-22T07:46:20.506Z,19.26
2022-10-22T07:48:47.841Z,19.30
2022-10-22T07:51:15.823Z,19.31
2022-10-22T07:53:43.548Z,19.34
2022-10-22T07:56:10.996Z,19.40
2022-10-22T07:58:38.308Z,19.44
2022-10-22T08:01:05.965Z,19.49
2022-10-22T08:03:33.854Z,19.53
2022-10-22T08:06:01.752Z,19.58
2022-10-22T08:08:30.934Z,19.63
2022-10-22T08:11:01.601Z,19.67
2022-10-22T08:13:30.752Z,19.71
2022-10-22T08:16:00.334Z,19.73
2022-10-22T08:18:28.294Z,19.77
2022-10-22T08:20:55.574Z,19.81
2022-10-22T08:23:26.002Z,19.85
2022-10-22T08:25:54.809Z,19.89
2022-10-22T08:28:23.030Z,19.94
2022-10-22T08:30:50.152Z,19.97
2022-10-22T08:33:17.099Z,20.00
2022-10-22T08:35:51.820Z,20.03
2022-10-22T08:38:19.795Z,20.10
2022-10-22T08:40:54.799Z,20.16
2022-10-22T08:43:50.136Z,20.21
2022-10-22T08:46:53.055Z,20.28
2022-10-22T08:49:25.396Z,20.34
2022-10-22T08:51:52.645Z,20.40
2022-10-22T08:54:42.017Z,20.49
2022-10-22T08:57:09.195Z,20.56
2022-10-22T09:00:05.376Z,20.62
2022-10-22T09:02:59.970Z,20.67
2022-10-22T09:08:24.611Z,20.75
2022-10-22T09:11:01.595Z,20.80
2022-10-22T09:13:29.919Z,20.84
2022-10-22T09:16:01.915Z,20.87
2022-10-22T09:19:10.270Z,20.90
2022-10-22T09:22:10.071Z,20.95
2022-10-22T09:24:43.681Z,21.02
2022-10-22T09:27:29.138Z,21.09
2022-10-22T09:29:56.894Z,21.10
2022-10-22T09:32:24.088Z,21.14
2022-10-22T09:34:57.035Z,21.18
2022-10-22T09:37:30.033Z,21.23
2022-10-22T09:39:59.206Z,21.27
2022-10-22T09:42:26.675Z,21.34
2022-10-22T09:44:59.740Z,21.38
2022-10-22T09:48:02.150Z,21.41
2022-10-22T09:50:39.650Z,21.47
2022-10-22T09:53:43.952Z,21.47
2022-10-22T09:56:36.475Z,21.50
2022-10-22T09:59:04.250Z,21.54
2022-10-22T10:01:38.627Z,21.52
2022-10-22T10:04:10.064Z,21.56
2022-10-22T10:06:41.134Z,21.61
2022-10-22T10:09:25.398Z,21.64
2022-10-22T10:12:06.221Z,21.68
2022-10-22T10:14:38.896Z,21.73
2022-10-22T10:17:28.183Z,21.76
2022-10-22T10:20:10.753Z,21.69
2022-10-22T10:23:20.641Z,21.78
2022-10-22T10:26:07.947Z,21.80
2022-10-22T10:29:13.235Z,21.77
2022-10-22T10:32:10.203Z,21.89
2022-10-22T10:34:53.672Z,21.95
2022-10-22T10:37:38.751Z,21.94
2022-10-22T10:40:13.174Z,21.95
2022-10-22T10:42:58.698Z,22.04
2022-10-22T10:45:36.194Z,22.08
2022-10-22T10:48:33.089Z,22.10
2022-10-22T10:51:50.576Z,22.14
2022-10-22T10:54:28.047Z,22.24
2022-10-22T10:57:02.812Z,22.12
2022-10-22T10:59:47.638Z,22.13
2022-10-22T11:02:34.973Z,22.18
2022-10-22T11:05:28.235Z,22.20
2022-10-22T11:08:03.043Z,22.19
2022-10-22T11:10:42.483Z,22.20
2022-10-22T11:13:33.000Z,22.27
2022-10-22T11:16:14.603Z,22.37
2022-10-22T11:18:45.091Z,22.42
2022-10-22T11:21:30.500Z,22.42
2022-10-22T11:24:12.302Z,22.43
2022-10-22T11:26:49.080Z,22.33
2022-10-22T11:29:27.297Z,22.47
2022-10-22T11:31:57.712Z,22.59
2022-10-22T11:34:40.902Z,22.57
2022-10-22T11:37:11.148Z,22.45
2022-10-22T11:39:45.845Z,22.39
2022-10-22T11:42:21.655Z,22.38
2022-10-22T11:45:07.245Z,22.37
2022-10-22T11:47:53.785Z,22.34
2022-10-22T11:50:25.193Z,22.39
2022-10-22T11:53:02.914Z,22.44
2022-10-22T11:55:48.746Z,22.46
2022-10-22T11:58:35.703Z,22.48
2022-10-22T12:01:02.625Z,22.41
2022-10-22T12:03:35.438Z,22.42
2022-10-22T12:06:12.258Z,22.42
2022-10-22T12:08:46.143Z,22.33
2022-10-22T12:11:20.702Z,22.31
2022-10-22T12:14:26.636Z,22.38
2022-10-22T12:16:58.289Z,22.30
2022-10-22T12:19:36.163Z,22.30
2022-10-22T12:22:27.043Z,22.32
2022-10-22T12:25:00.961Z,22.32
2022-10-22T12:27:39.092Z,22.27
2022-10-22T12:30:29.156Z,22.22
2022-10-22T12:33:01.637Z,22.26
2022-10-22T12:35:43.009Z,22.24
2022-10-22T12:38:17.476Z,22.23
2022-10-22T12:40:47.671Z,22.22
2022-10-22T12:43:20.594Z,22.26
2022-10-22T12:45:49.850Z,22.27
2022-10-22T12:48:41.191Z,22.31
2022-10-22T12:51:11.773Z,22.32
2022-10-22T12:53:55.570Z,22.29
2022-10-22T12:56:27.927Z,22.29
2022-10-22T12:59:26.421Z,22.30
2022-10-22T13:01:54.926Z,22.29
2022-10-22T13:04:37.712Z,22.32
2022-10-22T13:07:25.939Z,22.36
2022-10-22T13:09:57.525Z,22.43
2022-10-22T13:12:28.094Z,22.43
2022-10-22T13:14:55.102Z,22.43
2022-10-22T13:17:41.439Z,22.43
2022-10-22T13:20:23.547Z,22.40
2022-10-22T13:23:03.395Z,22.42
2022-10-22T13:25:38.689Z,22.51
2022-10-22T13:28:21.155Z,22.62
2022-10-22T13:31:02.753Z,22.66
2022-10-22T13:33:38.440Z,22.64
2022-10-22T13:36:06.646Z,22.67
2022-10-22T13:38:33.715Z,22.66
2022-10-22T13:41:03.182Z,22.64
2022-10-22T13:43:30.226Z,22.64
2022-10-22T13:46:01.220Z,22.68
2022-10-22T13:48:30.673Z,22.72
2022-10-22T13:50:57.700Z,22.78
2022-10-22T13:53:28.962Z,22.83
2022-10-22T13:55:56.331Z,22.87
2022-10-22T13:58:25.117Z,22.92
2022-10-22T14:00:57.032Z,22.89
2022-10-22T14:03:32.629Z,22.85
2022-10-22T14:06:01.064Z,22.84
2022-10-22T14:08:28.939Z,22.81
2022-10-22T14:10:56.195Z,22.80
2022-10-22T14:13:23.856Z,22.82
2022-10-22T14:15:52.508Z,22.83
2022-10-22T14:18:28.654Z,22.83
2022-10-22T14:20:58.631Z,22.79
2022-10-22T14:23:30.174Z,22.79
2022-10-22T14:25:59.156Z,22.78
2022-10-22T14:28:26.162Z,22.77
2022-10-22T14:30:54.414Z,22.77
2022-10-22T14:33:32.109Z,22.76
2022-10-22T14:36:00.851Z,22.75
2022-10-22T14:38:28.574Z,22.74
2022-10-22T14:40:56.037Z,22.73
2022-10-22T14:43:28.543Z,22.72
2022-10-22T14:45:56.378Z,22.72
2022-10-22T14:48:24.502Z,22.72
2022-10-22T14:50:52.091Z,22.70
2022-10-22T14:53:19.926Z,22.68
2022-10-22T14:55:49.104Z,22.66
2022-10-22T14:58:16.595Z,22.65
2022-10-22T15:00:44.231Z,22.62
2022-10-22T15:03:11.987Z,22.61
2022-10-22T15:05:44.785Z,22.59
2022-10-22T15:08:14.559Z,22.57
2022-10-22T15:10:41.859Z,22.54
2022-10-22T15:13:09.841Z,22.54
2022-10-22T15:15:41.241Z,22.55
2022-10-22T15:18:08.801Z,22.54
2022-10-22T15:20:36.858Z,22.54
2022-10-22T15:23:04.102Z,22.53
2022-10-22T15:25:31.300Z,22.52
2022-10-22T15:28:01.845Z,22.50
2022-10-22T15:30:34.563Z,22.45
2022-10-22T15:33:02.074Z,22.42
2022-10-22T15:35:29.040Z,22.39
2022-10-22T15:37:56.072Z,22.34
2022-10-22T15:40:25.956Z,22.32
2022-10-22T15:42:53.350Z,22.27
2022-10-22T15:45:22.651Z,22.24
2022-10-22T15:47:50.452Z,22.20
2022-10-22T15:52:45.123Z,22.11
2022-10-22T15:57:41.164Z,22.07
2022-10-22T16:00:10.004Z,22.04
2022-10-22T16:02:39.901Z,22.01
2022-10-22T16:05:09.192Z,21.99
2022-10-22T16:07:36.856Z,21.96
2022-10-22T16:10:04.715Z,21.92
2022-10-22T16:12:32.067Z,21.89
2022-10-22T16:14:59.313Z,21.87
2022-10-22T16:17:26.332Z,21.83
2022-10-22T16:19:53.557Z,21.81
2022-10-22T16:22:20.554Z,21.80
2022-10-22T16:24:47.462Z,21.77
2022-10-22T16:27:14.479Z,21.75
2022-10-22T16:29:42.006Z,21.73
2022-10-22T16:32:08.992Z,21.72
2022-10-22T16:34:35.963Z,21.67
2022-10-22T16:37:03.197Z,21.65
2022-10-22T16:39:30.644Z,21.64
2022-10-22T16:41:57.849Z,21.62
2022-10-22T16:44:25.271Z,21.60
2022-10-22T16:46:52.658Z,21.56
2022-10-22T16:49:19.973Z,21.53
2022-10-22T16:51:47.015Z,21.50
2022-10-22T16:54:15.689Z,21.48
2022-10-22T16:56:42.714Z,21.46
2022-10-22T16:59:09.952Z,21.42
2022-10-22T17:01:40.974Z,21.40
2022-10-22T17:04:09.407Z,21.40
2022-10-22T17:06:36.770Z,21.37
2022-10-22T17:09:04.915Z,21.33
2022-10-22T17:11:36.418Z,21.31
2022-10-22T17:14:05.319Z,21.27
2022-10-22T17:16:32.413Z,21.26
2022-10-22T17:18:59.390Z,21.23
2022-10-22T17:21:26.361Z,21.23
2022-10-22T17:23:58.027Z,21.20
2022-10-22T17:26:26.979Z,21.15
2022-10-22T17:28:54.869Z,21.13
2022-10-22T17:31:25.150Z,21.10
2022-10-22T17:33:54.932Z,21.08
2022-10-22T17:36:24.101Z,21.04
2022-10-22T17:38:57.304Z,21.01
2022-10-22T17:41:32.108Z,20.98
2022-10-22T17:44:02.290Z,20.95
2022-10-22T17:46:31.131Z,20.93
2022-10-22T17:49:02.207Z,20.91
2022-10-22T17:51:31.469Z,20.90
2022-10-22T17:53:58.686Z,20.89
2022-10-22T17:56:29.878Z,20.89
2022-10-22T17:58:59.675Z,20.87
2022-10-22T18:01:31.416Z,20.85
2022-10-22T18:04:06.336Z,20.84
2022-10-22T18:06:34.786Z,20.83
2022-10-22T18:09:05.812Z,20.83
2022-10-22T18:11:34.410Z,20.83
2022-10-22T18:14:01.455Z,20.83
2022-10-22T18:16:28.715Z,20.82
2022-10-22T18:18:57.485Z,20.81
2022-10-22T18:21:27.359Z,20.80
2022-10-22T18:23:55.285Z,20.78
2022-10-22T18:26:25.945Z,20.76
2022-10-22T18:28:54.717Z,20.76
2022-10-22T18:31:27.972Z,20.75
2022-10-22T18:33:55.673Z,20.75
2022-10-22T18:36:26.789Z,20.75
2022-10-22T18:38:57.394Z,20.73
2022-10-22T18:41:25.280Z,20.72
2022-10-22T18:43:54.719Z,20.72
2022-10-22T18:46:24.015Z,20.70
2022-10-22T18:48:56.155Z,20.69
2022-10-22T18:51:26.166Z,20.67
2022-10-22T18:54:05.895Z,20.67
2022-10-22T18:56:40.708Z,20.66
2022-10-22T18:59:20.800Z,20.64
2022-10-22T19:01:48.093Z,20.62
2022-10-22T19:04:15.523Z,20.61
2022-10-22T19:06:45.244Z,20.61
2022-10-22T19:09:15.287Z,20.55
2022-10-22T19:11:45.056Z,20.51
2022-10-22T19:14:14.964Z,20.47
2022-10-22T19:16:42.470Z,20.44
2022-10-22T19:19:09.530Z,20.41
2022-10-22T19:21:38.387Z,20.38
2022-10-22T19:24:06.124Z,20.33
2022-10-22T19:26:33.099Z,20.28
2022-10-22T19:29:00.575Z,20.24
2022-10-22T19:31:32.437Z,20.24
2022-10-22T19:34:01.537Z,20.19
2022-10-22T19:36:30.826Z,20.18
2022-10-22T19:38:59.301Z,20.15
2022-10-22T19:41:29.136Z,20.13
2022-10-22T19:43:58.007Z,20.10
2022-10-22T19:46:29.243Z,20.08
2022-10-22T19:48:57.370Z,20.05
2022-10-22T19:51:29.896Z,20.01
2022-10-22T19:54:18.618Z,19.99
2022-10-22T19:56:46.779Z,19.96
2022-10-22T19:59:15.860Z,19.92
2022-10-22T20:01:43.361Z,19.89
2022-10-22T20:04:16.289Z,19.88
2022-10-22T20:06:48.278Z,19.85
2022-10-22T20:09:16.105Z,19.83
2022-10-22T20:11:44.263Z,19.80
2022-10-22T20:14:12.038Z,19.79
2022-10-22T20:16:39.470Z,19.77
2022-10-22T20:19:08.644Z,19.74
2022-10-22T20:21:35.583Z,19.72
2022-10-22T20:24:02.590Z,19.68
2022-10-22T20:26:31.518Z,19.65
2022-10-22T20:28:59.027Z,19.62
2022-10-22T20:31:29.344Z,19.60
2022-10-22T20:33:59.602Z,19.58
2022-10-22T20:36:28.703Z,19.59
2022-10-22T20:39:02.423Z,19.57
2022-10-22T20:41:29.841Z,19.56
2022-10-22T20:43:57.165Z,19.55
2022-10-22T20:46:30.854Z,19.54
2022-10-22T20:49:24.473Z,19.48
2022-10-22T20:51:51.555Z,19.45
2022-10-22T20:54:20.121Z,19.43
2022-10-22T20:56:47.996Z,19.41
2022-10-22T20:59:15.875Z,19.38
2022-10-22T21:01:48.095Z,19.36
2022-10-22T21:04:17.604Z,19.33
2022-10-22T21:06:45.368Z,19.33
2022-10-22T21:09:14.559Z,19.31
2022-10-22T21:11:44.674Z,19.28
2022-10-22T21:14:14.818Z,19.26
2022-10-22T21:16:50.023Z,19.25
2022-10-22T21:19:19.181Z,19.22
2022-10-22T21:21:46.067Z,19.21
2022-10-22T21:24:13.069Z,19.22
2022-10-22T21:26:42.758Z,19.21
2022-10-22T21:29:12.543Z,19.19
2022-10-22T21:31:40.603Z,19.18
2022-10-22T21:34:07.839Z,19.18
2022-10-22T21:36:35.059Z,19.17
2022-10-22T21:39:02.752Z,19.15
2022-10-22T21:41:29.844Z,19.14
2022-10-22T21:43:56.992Z,19.13
2022-10-22T21:46:27.430Z,19.12
2022-10-22T21:49:03.388Z,19.10
2022-10-22T21:51:33.968Z,19.07
2022-10-22T21:54:01.233Z,19.04
2022-10-22T21:56:34.745Z,19.03
2022-10-22T21:59:04.430Z,19.00
2022-10-22T22:01:31.639Z,18.97
2022-10-22T22:03:58.999Z,18.97
2022-10-22T22:06:30.854Z,18.96
2022-10-22T22:09:00.320Z,18.94
2022-10-22T22:11:29.041Z,18.91
2022-10-22T22:13:58.089Z,18.90
2022-10-22T22:16:32.531Z,18.87
2022-10-22T22:21:41.833Z,18.83
2022-10-22T22:24:11.891Z,18.82
2022-10-22T22:26:39.588Z,18.81
2022-10-22T22:29:06.670Z,18.78
2022-10-22T22:31:37.326Z,18.76
2022-10-22T22:34:08.829Z,18.75
2022-10-22T22:36:39.776Z,18.74
2022-10-22T22:39:11.096Z,18.72
2022-10-22T22:41:38.134Z,18.73
2022-10-22T22:44:05.394Z,18.74
2022-10-22T22:46:32.642Z,18.73
2022-10-22T22:48:59.638Z,18.73
2022-10-22T22:51:26.876Z,18.72
2022-10-22T22:53:53.887Z,18.75
2022-10-22T22:56:28.004Z,18.75
2022-10-22T22:58:55.855Z,18.75
2022-10-22T23:01:38.631Z,18.74
2022-10-22T23:04:25.292Z,18.77
2022-10-22T23:06:52.481Z,18.79
2022-10-22T23:11:53.454Z,18.83
2022-10-22T23:14:20.554Z,18.85
2022-10-22T23:16:51.159Z,18.86
2022-10-22T23:19:21.612Z,18.88
2022-10-22T23:21:54.891Z,18.89
2022-10-22T23:24:25.966Z,18.91
2022-10-22T23:26:54.949Z,18.85
2022-10-22T23:29:26.721Z,18.90
2022-10-22T23:31:55.730Z,18.92
2022-10-22T23:34:25.154Z,18.95
2022-10-22T23:36:53.174Z,18.94
2022-10-22T23:39:26.527Z,18.97
2022-10-22T23:41:54.377Z,18.94
2022-10-22T23:44:22.760Z,18.98
2022-10-22T23:46:50.837Z,18.97
2022-10-22T23:49:18.580Z,18.98
2022-10-22T23:51:45.604Z,19.00
2022-10-22T23:54:16.298Z,18.99
2022-10-22T23:56:43.664Z,19.00
2022-10-22T23:59:11.537Z,19.03
